sensor_id;sensor_type;location;lat;lon;timestamp;P1;durP1;ratioP1;P2;durP2;ratioP2
3405;SDS011;10008;48.682;9.016;2023-06-04T00:00:43;10.83;;;10.03;;
3405;SDS011;10008;48.682;9.016;2023-06-04T00:03:09;10.70;;;9.90;;
3405;SDS011;10008;48.682;9.016;2023-06-04T00:05:35;11.67;;;10.77;;
3405;SDS011;10008;48.682;9.016;2023-06-04T00:08:00;11.00;;;10.20;;
3405;SDS011;10008;48.682;9.016;2023-06-04T00:10:26;10.77;;;9.97;;
3405;SDS011;10008;48.682;9.016;2023-06-04T00:12:52;10.80;;;10.00;;
3405;SDS011;10008;48.682;9.016;2023-06-04T00:15:18;11.10;;;10.30;;
3405;SDS011;10008;48.682;9.016;2023-06-04T00:17:43;10.90;;;10.10;;
3405;SDS011;10008;48.682;9.016;2023-06-04T00:20:10;11.47;;;10.57;;
3405;SDS011;10008;48.682;9.016;2023-06-04T00:22:36;10.83;;;10.03;;
3405;SDS011;10008;48.682;9.016;2023-06-04T00:25:02;10.73;;;9.93;;
3405;SDS011;10008;48.682;9.016;2023-06-04T00:27:29;10.90;;;10.10;;
3405;SDS011;10008;48.682;9.016;2023-06-04T00:29:54;10.87;;;10.07;;
3405;SDS011;10008;48.682;9.016;2023-06-04T00:32:20;10.70;;;9.90;;
3405;SDS011;10008;48.682;9.016;2023-06-04T00:34:53;10.80;;;10.00;;
3405;SDS011;10008;48.682;9.016;2023-06-04T00:37:21;10.70;;;9.90;;
3405;SDS011;10008;48.682;9.016;2023-06-04T00:39:47;11.40;;;10.50;;
3405;SDS011;10008;48.682;9.016;2023-06-04T00:42:13;10.67;;;9.87;;
3405;SDS011;10008;48.682;9.016;2023-06-04T00:44:39;10.77;;;9.97;;
3405;SDS011;10008;48.682;9.016;2023-06-04T00:47:17;11.23;;;10.37;;
3405;SDS011;10008;48.682;9.016;2023-06-04T00:49:45;10.63;;;9.83;;
3405;SDS011;10008;48.682;9.016;2023-06-04T00:52:12;10.80;;;10.00;;
3405;SDS011;10008;48.682;9.016;2023-06-04T00:54:39;10.60;;;9.80;;
3405;SDS011;10008;48.682;9.016;2023-06-04T00:57:06;10.80;;;10.00;;
3405;SDS011;10008;48.682;9.016;2023-06-04T00:59:34;11.50;;;10.60;;
3405;SDS011;10008;48.682;9.016;2023-06-04T01:02:06;10.60;;;9.80;;
3405;SDS011;10008;48.682;9.016;2023-06-04T01:04:37;11.77;;;10.87;;
3405;SDS011;10008;48.682;9.016;2023-06-04T01:07:11;10.80;;;10.00;;
3405;SDS011;10008;48.682;9.016;2023-06-04T01:09:40;10.80;;;10.00;;
3405;SDS011;10008;48.682;9.016;2023-06-04T01:12:07;10.70;;;9.90;;
3405;SDS011;10008;48.682;9.016;2023-06-04T01:14:33;10.87;;;10.07;;
3405;SDS011;10008;48.682;9.016;2023-06-04T01:22:39;10.50;;;9.70;;
3405;SDS011;10008;48.682;9.016;2023-06-04T01:25:15;11.70;;;10.80;;
3405;SDS011;10008;48.682;9.016;2023-06-04T01:27:49;11.23;;;10.43;;
3405;SDS011;10008;48.682;9.016;2023-06-04T01:30:18;11.33;;;10.47;;
3405;SDS011;10008;48.682;9.016;2023-06-04T01:32:48;10.57;;;9.77;;
3405;SDS011;10008;48.682;9.016;2023-06-04T01:35:14;10.87;;;10.07;;
3405;SDS011;10008;48.682;9.016;2023-06-04T01:37:39;10.70;;;9.90;;
3405;SDS011;10008;48.682;9.016;2023-06-04T01:40:05;10.60;;;9.80;;
3405;SDS011;10008;48.682;9.016;2023-06-04T01:42:33;10.50;;;9.70;;
3405;SDS011;10008;48.682;9.016;2023-06-04T01:44:59;10.70;;;9.90;;
3405;SDS011;10008;48.682;9.016;2023-06-04T01:47:25;10.40;;;9.60;;
3405;SDS011;10008;48.682;9.016;2023-06-04T01:49:50;10.20;;;9.40;;
3405;SDS011;10008;48.682;9.016;2023-06-04T01:52:16;10.30;;;9.50;;
3405;SDS011;10008;48.682;9.016;2023-06-04T01:54:42;10.10;;;9.30;;
3405;SDS011;10008;48.682;9.016;2023-06-04T01:57:08;9.90;;;9.10;;
3405;SDS011;10008;48.682;9.016;2023-06-04T01:59:37;10.30;;;9.50;;
3405;SDS011;10008;48.682;9.016;2023-06-04T02:02:03;10.67;;;9.87;;
3405;SDS011;10008;48.682;9.016;2023-06-04T02:04:30;10.27;;;9.47;;
3405;SDS011;10008;48.682;9.016;2023-06-04T02:06:55;10.60;;;9.80;;
3405;SDS011;10008;48.682;9.016;2023-06-04T02:09:24;10.23;;;9.43;;
3405;SDS011;10008;48.682;9.016;2023-06-04T02:11:51;10.40;;;9.60;;
3405;SDS011;10008;48.682;9.016;2023-06-04T02:14:16;10.40;;;9.60;;
3405;SDS011;10008;48.682;9.016;2023-06-04T02:16:42;10.10;;;9.30;;
3405;SDS011;10008;48.682;9.016;2023-06-04T02:19:08;10.30;;;9.50;;
3405;SDS011;10008;48.682;9.016;2023-06-04T02:21:34;10.30;;;9.50;;
3405;SDS011;10008;48.682;9.016;2023-06-04T02:24:00;11.10;;;10.30;;
3405;SDS011;10008;48.682;9.016;2023-06-04T02:26:26;14.83;;;13.43;;
3405;SDS011;10008;48.682;9.016;2023-06-04T02:28:51;10.20;;;9.40;;
3405;SDS011;10008;48.682;9.016;2023-06-04T02:31:17;10.27;;;9.47;;
3405;SDS011;10008;48.682;9.016;2023-06-04T02:33:43;10.83;;;9.93;;
3405;SDS011;10008;48.682;9.016;2023-06-04T02:36:09;11.97;;;10.97;;
3405;SDS011;10008;48.682;9.016;2023-06-04T02:38:34;10.20;;;9.40;;
3405;SDS011;10008;48.682;9.016;2023-06-04T02:41:00;10.00;;;9.20;;
3405;SDS011;10008;48.682;9.016;2023-06-04T02:43:26;10.73;;;9.83;;
3405;SDS011;10008;48.682;9.016;2023-06-04T02:45:52;10.20;;;9.40;;
3405;SDS011;10008;48.682;9.016;2023-06-04T02:48:18;9.90;;;9.20;;
3405;SDS011;10008;48.682;9.016;2023-06-04T02:50:43;9.73;;;9.03;;
3405;SDS011;10008;48.682;9.016;2023-06-04T02:53:09;10.50;;;9.70;;
3405;SDS011;10008;48.682;9.016;2023-06-04T02:55:35;10.20;;;9.40;;
3405;SDS011;10008;48.682;9.016;2023-06-04T02:58:01;10.10;;;9.30;;
3405;SDS011;10008;48.682;9.016;2023-06-04T03:00:28;10.23;;;9.43;;
3405;SDS011;10008;48.682;9.016;2023-06-04T03:02:54;10.20;;;9.40;;
3405;SDS011;10008;48.682;9.016;2023-06-04T03:05:26;10.07;;;9.30;;
3405;SDS011;10008;48.682;9.016;2023-06-04T03:07:52;9.93;;;9.20;;
3405;SDS011;10008;48.682;9.016;2023-06-04T03:10:18;9.90;;;9.10;;
3405;SDS011;10008;48.682;9.016;2023-06-04T03:12:44;10.40;;;9.60;;
3405;SDS011;10008;48.682;9.016;2023-06-04T03:15:10;9.83;;;9.10;;
3405;SDS011;10008;48.682;9.016;2023-06-04T03:17:36;10.30;;;9.50;;
3405;SDS011;10008;48.682;9.016;2023-06-04T03:20:02;11.40;;;10.47;;
3405;SDS011;10008;48.682;9.016;2023-06-04T03:22:32;10.27;;;9.43;;
3405;SDS011;10008;48.682;9.016;2023-06-04T03:25:01;10.67;;;9.80;;
3405;SDS011;10008;48.682;9.016;2023-06-04T03:27:28;10.67;;;9.87;;
3405;SDS011;10008;48.682;9.016;2023-06-04T03:29:55;9.60;;;8.90;;
3405;SDS011;10008;48.682;9.016;2023-06-04T03:32:21;10.67;;;9.63;;
3405;SDS011;10008;48.682;9.016;2023-06-04T03:34:47;9.70;;;9.00;;
3405;SDS011;10008;48.682;9.016;2023-06-04T03:37:13;11.97;;;10.77;;
3405;SDS011;10008;48.682;9.016;2023-06-04T03:39:38;10.50;;;9.70;;
3405;SDS011;10008;48.682;9.016;2023-06-04T03:42:07;10.67;;;9.80;;
3405;SDS011;10008;48.682;9.016;2023-06-04T03:44:33;9.87;;;9.17;;
3405;SDS011;10008;48.682;9.016;2023-06-04T03:46:59;9.60;;;8.90;;
3405;SDS011;10008;48.682;9.016;2023-06-04T03:49:26;9.97;;;9.20;;
3405;SDS011;10008;48.682;9.016;2023-06-04T03:51:52;9.83;;;9.13;;
3405;SDS011;10008;48.682;9.016;2023-06-04T03:54:19;10.43;;;9.63;;
3405;SDS011;10008;48.682;9.016;2023-06-04T03:56:47;10.30;;;9.50;;
3405;SDS011;10008;48.682;9.016;2023-06-04T03:59:14;9.83;;;9.13;;
3405;SDS011;10008;48.682;9.016;2023-06-04T04:01:40;10.03;;;9.30;;
3405;SDS011;10008;48.682;9.016;2023-06-04T04:04:07;9.87;;;9.10;;
3405;SDS011;10008;48.682;9.016;2023-06-04T04:06:33;10.40;;;9.60;;
3405;SDS011;10008;48.682;9.016;2023-06-04T04:08:58;10.97;;;10.07;;
3405;SDS011;10008;48.682;9.016;2023-06-04T04:11:24;11.37;;;10.47;;
3405;SDS011;10008;48.682;9.016;2023-06-04T04:13:51;11.63;;;10.63;;
3405;SDS011;10008;48.682;9.016;2023-06-04T04:16:17;10.80;;;9.90;;
3405;SDS011;10008;48.682;9.016;2023-06-04T04:18:43;9.90;;;9.10;;
3405;SDS011;10008;48.682;9.016;2023-06-04T04:21:10;9.83;;;9.10;;
3405;SDS011;10008;48.682;9.016;2023-06-04T04:23:37;9.67;;;8.97;;
3405;SDS011;10008;48.682;9.016;2023-06-04T04:26:08;9.57;;;8.87;;
3405;SDS011;10008;48.682;9.016;2023-06-04T04:28:35;9.93;;;9.17;;
3405;SDS011;10008;48.682;9.016;2023-06-04T04:31:01;9.93;;;9.13;;
3405;SDS011;10008;48.682;9.016;2023-06-04T04:33:29;10.03;;;9.23;;
3405;SDS011;10008;48.682;9.016;2023-06-04T04:36:05;10.20;;;9.40;;
3405;SDS011;10008;48.682;9.016;2023-06-04T04:38:39;10.10;;;9.30;;
3405;SDS011;10008;48.682;9.016;2023-06-04T04:41:05;10.30;;;9.50;;
3405;SDS011;10008;48.682;9.016;2023-06-04T04:43:33;10.53;;;9.73;;
3405;SDS011;10008;48.682;9.016;2023-06-04T04:46:08;10.40;;;9.60;;
3405;SDS011;10008;48.682;9.016;2023-06-04T04:48:35;10.27;;;9.47;;
3405;SDS011;10008;48.682;9.016;2023-06-04T04:51:01;10.30;;;9.50;;
3405;SDS011;10008;48.682;9.016;2023-06-04T04:53:27;10.60;;;9.80;;
3405;SDS011;10008;48.682;9.016;2023-06-04T04:55:53;10.70;;;9.87;;
3405;SDS011;10008;48.682;9.016;2023-06-04T04:58:19;10.93;;;9.93;;
3405;SDS011;10008;48.682;9.016;2023-06-04T05:00:45;10.43;;;9.63;;
3405;SDS011;10008;48.682;9.016;2023-06-04T05:03:13;10.40;;;9.60;;
3405;SDS011;10008;48.682;9.016;2023-06-04T05:05:39;10.80;;;10.00;;
3405;SDS011;10008;48.682;9.016;2023-06-04T05:08:05;10.33;;;9.53;;
3405;SDS011;10008;48.682;9.016;2023-06-04T05:10:35;10.53;;;9.73;;
3405;SDS011;10008;48.682;9.016;2023-06-04T05:13:02;10.40;;;9.60;;
3405;SDS011;10008;48.682;9.016;2023-06-04T05:15:35;10.20;;;9.40;;
3405;SDS011;10008;48.682;9.016;2023-06-04T05:18:02;11.00;;;10.20;;
3405;SDS011;10008;48.682;9.016;2023-06-04T05:20:32;11.13;;;10.23;;
3405;SDS011;10008;48.682;9.016;2023-06-04T05:23:01;11.30;;;10.40;;
3405;SDS011;10008;48.682;9.016;2023-06-04T05:25:27;10.90;;;10.10;;
3405;SDS011;10008;48.682;9.016;2023-06-04T05:27:55;17.23;;;13.80;;
3405;SDS011;10008;48.682;9.016;2023-06-04T05:30:21;11.20;;;10.30;;
3405;SDS011;10008;48.682;9.016;2023-06-04T05:32:47;11.43;;;10.50;;
3405;SDS011;10008;48.682;9.016;2023-06-04T05:35:17;11.60;;;10.70;;
3405;SDS011;10008;48.682;9.016;2023-06-04T05:37:43;12.20;;;11.17;;
3405;SDS011;10008;48.682;9.016;2023-06-04T05:40:11;11.30;;;10.40;;
3405;SDS011;10008;48.682;9.016;2023-06-04T05:42:38;11.20;;;10.30;;
3405;SDS011;10008;48.682;9.016;2023-06-04T05:45:04;11.40;;;10.50;;
3405;SDS011;10008;48.682;9.016;2023-06-04T05:47:33;13.40;;;12.40;;
3405;SDS011;10008;48.682;9.016;2023-06-04T05:49:59;11.50;;;10.60;;
3405;SDS011;10008;48.682;9.016;2023-06-04T05:52:25;11.63;;;10.73;;
3405;SDS011;10008;48.682;9.016;2023-06-04T05:54:51;11.50;;;10.60;;
3405;SDS011;10008;48.682;9.016;2023-06-04T05:57:17;11.50;;;10.60;;
3405;SDS011;10008;48.682;9.016;2023-06-04T05:59:44;11.20;;;10.30;;
3405;SDS011;10008;48.682;9.016;2023-06-04T06:02:13;11.20;;;10.30;;
3405;SDS011;10008;48.682;9.016;2023-06-04T06:04:40;11.87;;;10.77;;
3405;SDS011;10008;48.682;9.016;2023-06-04T06:07:06;11.30;;;10.40;;
3405;SDS011;10008;48.682;9.016;2023-06-04T06:09:32;13.10;;;11.90;;
3405;SDS011;10008;48.682;9.016;2023-06-04T06:11:58;11.37;;;10.47;;
3405;SDS011;10008;48.682;9.016;2023-06-04T06:14:24;11.30;;;10.40;;
3405;SDS011;10008;48.682;9.016;2023-06-04T06:16:51;11.60;;;10.70;;
3405;SDS011;10008;48.682;9.016;2023-06-04T06:19:18;11.60;;;10.70;;
3405;SDS011;10008;48.682;9.016;2023-06-04T06:21:43;12.10;;;11.10;;
3405;SDS011;10008;48.682;9.016;2023-06-04T06:24:10;12.10;;;11.10;;
3405;SDS011;10008;48.682;9.016;2023-06-04T06:26:36;11.70;;;10.80;;
3405;SDS011;10008;48.682;9.016;2023-06-04T06:29:03;11.90;;;11.00;;
3405;SDS011;10008;48.682;9.016;2023-06-04T06:31:30;11.40;;;10.50;;
3405;SDS011;10008;48.682;9.016;2023-06-04T06:33:56;11.50;;;10.60;;
3405;SDS011;10008;48.682;9.016;2023-06-04T06:36:21;11.40;;;10.50;;
3405;SDS011;10008;48.682;9.016;2023-06-04T06:38:47;11.57;;;10.67;;
3405;SDS011;10008;48.682;9.016;2023-06-04T06:41:13;12.50;;;11.30;;
3405;SDS011;10008;48.682;9.016;2023-06-04T06:43:39;16.93;;;15.40;;
3405;SDS011;10008;48.682;9.016;2023-06-04T06:46:04;13.73;;;11.73;;
3405;SDS011;10008;48.682;9.016;2023-06-04T06:48:30;11.50;;;10.60;;
3405;SDS011;10008;48.682;9.016;2023-06-04T06:50:56;11.60;;;10.70;;
3405;SDS011;10008;48.682;9.016;2023-06-04T06:53:22;11.23;;;10.33;;
3405;SDS011;10008;48.682;9.016;2023-06-04T06:55:47;11.90;;;10.80;;
3405;SDS011;10008;48.682;9.016;2023-06-04T06:58:13;12.23;;;11.23;;
3405;SDS011;10008;48.682;9.016;2023-06-04T07:00:40;11.30;;;10.40;;
3405;SDS011;10008;48.682;9.016;2023-06-04T07:03:06;11.93;;;10.93;;
3405;SDS011;10008;48.682;9.016;2023-06-04T07:05:33;11.60;;;10.70;;
3405;SDS011;10008;48.682;9.016;2023-06-04T07:07:58;11.80;;;10.90;;
3405;SDS011;10008;48.682;9.016;2023-06-04T07:10:26;11.60;;;10.70;;
3405;SDS011;10008;48.682;9.016;2023-06-04T07:12:52;11.50;;;10.60;;
3405;SDS011;10008;48.682;9.016;2023-06-04T07:15:18;11.80;;;10.90;;
3405;SDS011;10008;48.682;9.016;2023-06-04T07:17:44;11.70;;;10.80;;
3405;SDS011;10008;48.682;9.016;2023-06-04T07:20:10;11.80;;;10.90;;
3405;SDS011;10008;48.682;9.016;2023-06-04T07:22:35;11.60;;;10.70;;
3405;SDS011;10008;48.682;9.016;2023-06-04T07:25:01;11.60;;;10.70;;
3405;SDS011;10008;48.682;9.016;2023-06-04T07:27:27;12.00;;;11.10;;
3405;SDS011;10008;48.682;9.016;2023-06-04T07:29:53;11.90;;;11.00;;
3405;SDS011;10008;48.682;9.016;2023-06-04T07:32:18;11.80;;;10.90;;
3405;SDS011;10008;48.682;9.016;2023-06-04T07:34:44;11.77;;;10.87;;
3405;SDS011;10008;48.682;9.016;2023-06-04T07:37:10;11.70;;;10.80;;
3405;SDS011;10008;48.682;9.016;2023-06-04T07:39:38;11.90;;;11.00;;
3405;SDS011;10008;48.682;9.016;2023-06-04T07:42:04;12.07;;;11.17;;
3405;SDS011;10008;48.682;9.016;2023-06-04T07:44:30;12.43;;;11.43;;
3405;SDS011;10008;48.682;9.016;2023-06-04T07:46:56;12.20;;;11.30;;
3405;SDS011;10008;48.682;9.016;2023-06-04T07:49:22;16.40;;;15.20;;
3405;SDS011;10008;48.682;9.016;2023-06-04T07:51:48;13.00;;;12.00;;
3405;SDS011;10008;48.682;9.016;2023-06-04T07:54:13;12.50;;;11.50;;
3405;SDS011;10008;48.682;9.016;2023-06-04T07:56:39;12.00;;;11.10;;
3405;SDS011;10008;48.682;9.016;2023-06-04T07:59:05;12.27;;;11.27;;
3405;SDS011;10008;48.682;9.016;2023-06-04T08:01:31;14.03;;;12.93;;
3405;SDS011;10008;48.682;9.016;2023-06-04T08:03:57;12.17;;;11.27;;
3405;SDS011;10008;48.682;9.016;2023-06-04T08:06:24;12.87;;;11.87;;
3405;SDS011;10008;48.682;9.016;2023-06-04T08:08:51;12.60;;;11.60;;
3405;SDS011;10008;48.682;9.016;2023-06-04T08:11:18;12.83;;;11.83;;
3405;SDS011;10008;48.682;9.016;2023-06-04T08:13:44;12.40;;;11.40;;
3405;SDS011;10008;48.682;9.016;2023-06-04T08:16:10;12.70;;;11.70;;
3405;SDS011;10008;48.682;9.016;2023-06-04T08:18:39;12.60;;;11.60;;
3405;SDS011;10008;48.682;9.016;2023-06-04T08:21:08;12.30;;;11.30;;
3405;SDS011;10008;48.682;9.016;2023-06-04T08:23:36;12.60;;;11.60;;
3405;SDS011;10008;48.682;9.016;2023-06-04T08:26:02;12.70;;;11.70;;
3405;SDS011;10008;48.682;9.016;2023-06-04T08:28:28;12.60;;;11.60;;
3405;SDS011;10008;48.682;9.016;2023-06-04T08:30:54;12.70;;;11.70;;
3405;SDS011;10008;48.682;9.016;2023-06-04T08:33:19;12.67;;;11.67;;
3405;SDS011;10008;48.682;9.016;2023-06-04T08:35:46;12.93;;;11.93;;
3405;SDS011;10008;48.682;9.016;2023-06-04T08:38:11;12.80;;;11.80;;
3405;SDS011;10008;48.682;9.016;2023-06-04T08:40:37;12.80;;;11.80;;
3405;SDS011;10008;48.682;9.016;2023-06-04T08:43:03;12.57;;;11.57;;
3405;SDS011;10008;48.682;9.016;2023-06-04T08:45:30;12.60;;;11.60;;
3405;SDS011;10008;48.682;9.016;2023-06-04T08:47:58;14.30;;;13.00;;
3405;SDS011;10008;48.682;9.016;2023-06-04T08:50:25;12.80;;;11.80;;
3405;SDS011;10008;48.682;9.016;2023-06-04T08:52:52;12.50;;;11.50;;
3405;SDS011;10008;48.682;9.016;2023-06-04T08:55:19;12.23;;;11.27;;
3405;SDS011;10008;48.682;9.016;2023-06-04T08:57:47;13.00;;;11.90;;
3405;SDS011;10008;48.682;9.016;2023-06-04T09:00:15;12.20;;;11.20;;
3405;SDS011;10008;48.682;9.016;2023-06-04T09:02:41;12.80;;;11.80;;
3405;SDS011;10008;48.682;9.016;2023-06-04T09:05:08;12.77;;;11.77;;
3405;SDS011;10008;48.682;9.016;2023-06-04T09:07:39;12.60;;;11.60;;
3405;SDS011;10008;48.682;9.016;2023-06-04T09:10:06;12.37;;;11.37;;
3405;SDS011;10008;48.682;9.016;2023-06-04T09:12:33;12.40;;;11.40;;
3405;SDS011;10008;48.682;9.016;2023-06-04T09:15:02;12.47;;;11.47;;
3405;SDS011;10008;48.682;9.016;2023-06-04T09:17:28;13.17;;;12.13;;
3405;SDS011;10008;48.682;9.016;2023-06-04T09:19:54;12.30;;;11.33;;
3405;SDS011;10008;48.682;9.016;2023-06-04T09:22:30;12.70;;;11.70;;
3405;SDS011;10008;48.682;9.016;2023-06-04T09:24:57;12.40;;;11.40;;
3405;SDS011;10008;48.682;9.016;2023-06-04T09:27:23;12.50;;;11.50;;
3405;SDS011;10008;48.682;9.016;2023-06-04T09:29:54;12.70;;;11.60;;
3405;SDS011;10008;48.682;9.016;2023-06-04T09:32:21;12.68;;;11.60;;
3405;SDS011;10008;48.682;9.016;2023-06-04T09:34:48;13.20;;;12.20;;
3405;SDS011;10008;48.682;9.016;2023-06-04T09:37:14;13.57;;;12.47;;
3405;SDS011;10008;48.682;9.016;2023-06-04T09:39:43;12.70;;;11.70;;
3405;SDS011;10008;48.682;9.016;2023-06-04T09:42:18;12.40;;;11.40;;
3405;SDS011;10008;48.682;9.016;2023-06-04T09:44:44;12.53;;;11.53;;
3405;SDS011;10008;48.682;9.016;2023-06-04T09:47:13;12.50;;;11.50;;
3405;SDS011;10008;48.682;9.016;2023-06-04T09:49:41;12.60;;;11.60;;
3405;SDS011;10008;48.682;9.016;2023-06-04T09:52:17;12.97;;;11.97;;
3405;SDS011;10008;48.682;9.016;2023-06-04T09:54:43;13.00;;;12.00;;
3405;SDS011;10008;48.682;9.016;2023-06-04T09:57:15;13.00;;;12.00;;
3405;SDS011;10008;48.682;9.016;2023-06-04T09:59:43;12.93;;;11.93;;
3405;SDS011;10008;48.682;9.016;2023-06-04T10:02:15;13.13;;;12.13;;
3405;SDS011;10008;48.682;9.016;2023-06-04T10:04:44;12.90;;;11.90;;
3405;SDS011;10008;48.682;9.016;2023-06-04T10:07:17;13.50;;;12.47;;
3405;SDS011;10008;48.682;9.016;2023-06-04T10:09:43;13.00;;;12.00;;
3405;SDS011;10008;48.682;9.016;2023-06-04T10:12:13;13.10;;;12.10;;
3405;SDS011;10008;48.682;9.016;2023-06-04T10:14:47;13.30;;;12.30;;
3405;SDS011;10008;48.682;9.016;2023-06-04T10:17:22;13.87;;;12.77;;
3405;SDS011;10008;48.682;9.016;2023-06-04T10:19:50;14.27;;;13.17;;
3405;SDS011;10008;48.682;9.016;2023-06-04T10:22:19;13.40;;;12.40;;
3405;SDS011;10008;48.682;9.016;2023-06-04T10:24:45;13.30;;;12.30;;
3405;SDS011;10008;48.682;9.016;2023-06-04T10:27:12;13.17;;;12.17;;
3405;SDS011;10008;48.682;9.016;2023-06-04T10:29:38;13.40;;;12.40;;
3405;SDS011;10008;48.682;9.016;2023-06-04T10:32:05;13.40;;;12.40;;
3405;SDS011;10008;48.682;9.016;2023-06-04T10:34:31;13.17;;;12.07;;
3405;SDS011;10008;48.682;9.016;2023-06-04T10:36:58;13.33;;;12.23;;
3405;SDS011;10008;48.682;9.016;2023-06-04T10:39:31;12.87;;;11.87;;
3405;SDS011;10008;48.682;9.016;2023-06-04T10:42:00;13.00;;;12.00;;
3405;SDS011;10008;48.682;9.016;2023-06-04T10:44:29;13.20;;;12.10;;
3405;SDS011;10008;48.682;9.016;2023-06-04T10:46:56;12.60;;;11.60;;
3405;SDS011;10008;48.682;9.016;2023-06-04T10:49:29;13.07;;;12.07;;
3405;SDS011;10008;48.682;9.016;2023-06-04T10:52:09;13.00;;;12.00;;
3405;SDS011;10008;48.682;9.016;2023-06-04T10:54:35;13.30;;;12.30;;
3405;SDS011;10008;48.682;9.016;2023-06-04T10:57:09;13.40;;;12.40;;
3405;SDS011;10008;48.682;9.016;2023-06-04T10:59:36;12.70;;;11.70;;
3405;SDS011;10008;48.682;9.016;2023-06-04T11:02:05;13.57;;;12.55;;
3405;SDS011;10008;48.682;9.016;2023-06-04T11:04:32;13.23;;;12.23;;
3405;SDS011;10008;48.682;9.016;2023-06-04T11:07:01;13.02;;;11.93;;
3405;SDS011;10008;48.682;9.016;2023-06-04T11:09:34;12.27;;;11.27;;
3405;SDS011;10008;48.682;9.016;2023-06-04T11:12:01;12.20;;;11.30;;
3405;SDS011;10008;48.682;9.016;2023-06-04T11:14:29;12.17;;;11.20;;
3405;SDS011;10008;48.682;9.016;2023-06-04T11:16:55;12.33;;;11.40;;
3405;SDS011;10008;48.682;9.016;2023-06-04T11:19:21;12.93;;;11.93;;
3405;SDS011;10008;48.682;9.016;2023-06-04T11:21:47;12.00;;;11.10;;
3405;SDS011;10008;48.682;9.016;2023-06-04T11:24:14;13.20;;;12.20;;
3405;SDS011;10008;48.682;9.016;2023-06-04T11:26:41;12.03;;;11.13;;
3405;SDS011;10008;48.682;9.016;2023-06-04T11:29:08;12.60;;;11.60;;
3405;SDS011;10008;48.682;9.016;2023-06-04T11:31:41;12.13;;;11.13;;
3405;SDS011;10008;48.682;9.016;2023-06-04T11:36:50;12.20;;;11.20;;
3405;SDS011;10008;48.682;9.016;2023-06-04T11:39:18;12.45;;;11.45;;
3405;SDS011;10008;48.682;9.016;2023-06-04T11:41:44;11.90;;;11.00;;
3405;SDS011;10008;48.682;9.016;2023-06-04T11:44:11;12.35;;;11.40;;
3405;SDS011;10008;48.682;9.016;2023-06-04T11:46:43;13.18;;;12.18;;
3405;SDS011;10008;48.682;9.016;2023-06-04T11:49:16;13.70;;;12.60;;
3405;SDS011;10008;48.682;9.016;2023-06-04T11:51:52;12.20;;;11.30;;
3405;SDS011;10008;48.682;9.016;2023-06-04T11:54:18;12.15;;;11.25;;
3405;SDS011;10008;48.682;9.016;2023-06-04T11:56:46;12.38;;;11.38;;
3405;SDS011;10008;48.682;9.016;2023-06-04T11:59:16;11.73;;;10.82;;
3405;SDS011;10008;48.682;9.016;2023-06-04T12:01:43;11.82;;;10.90;;
3405;SDS011;10008;48.682;9.016;2023-06-04T12:04:11;12.20;;;11.20;;
3405;SDS011;10008;48.682;9.016;2023-06-04T12:06:38;12.30;;;11.30;;
3405;SDS011;10008;48.682;9.016;2023-06-04T12:09:19;12.85;;;11.95;;
3405;SDS011;10008;48.682;9.016;2023-06-04T12:11:49;11.60;;;10.70;;
3405;SDS011;10008;48.682;9.016;2023-06-04T12:14:17;12.30;;;11.30;;
3405;SDS011;10008;48.682;9.016;2023-06-04T12:17:29;12.17;;;11.20;;
3405;SDS011;10008;48.682;9.016;2023-06-04T12:19:53;13.10;;;12.00;;
3405;SDS011;10008;48.682;9.016;2023-06-04T12:22:19;12.60;;;11.60;;
3405;SDS011;10008;48.682;9.016;2023-06-04T12:24:49;12.53;;;11.53;;
3405;SDS011;10008;48.682;9.016;2023-06-04T12:27:20;12.43;;;11.53;;
3405;SDS011;10008;48.682;9.016;2023-06-04T12:30:01;12.20;;;11.30;;
3405;SDS011;10008;48.682;9.016;2023-06-04T12:32:29;13.30;;;12.30;;
3405;SDS011;10008;48.682;9.016;2023-06-04T12:34:55;12.50;;;11.50;;
3405;SDS011;10008;48.682;9.016;2023-06-04T12:37:24;13.00;;;12.00;;
3405;SDS011;10008;48.682;9.016;2023-06-04T12:39:55;13.57;;;12.47;;
3405;SDS011;10008;48.682;9.016;2023-06-04T12:42:21;12.60;;;11.60;;
3405;SDS011;10008;48.682;9.016;2023-06-04T12:44:48;13.20;;;12.17;;
3405;SDS011;10008;48.682;9.016;2023-06-04T12:47:14;12.13;;;11.23;;
3405;SDS011;10008;48.682;9.016;2023-06-04T12:49:42;12.23;;;11.33;;
3405;SDS011;10008;48.682;9.016;2023-06-04T12:52:08;12.60;;;11.53;;
3405;SDS011;10008;48.682;9.016;2023-06-04T12:54:33;12.30;;;11.30;;
3405;SDS011;10008;48.682;9.016;2023-06-04T12:56:59;12.40;;;11.40;;
3405;SDS011;10008;48.682;9.016;2023-06-04T12:59:25;12.80;;;11.80;;
3405;SDS011;10008;48.682;9.016;2023-06-04T13:01:52;14.20;;;13.00;;
3405;SDS011;10008;48.682;9.016;2023-06-04T13:04:20;12.87;;;11.87;;
3405;SDS011;10008;48.682;9.016;2023-06-04T13:06:46;12.50;;;11.50;;
3405;SDS011;10008;48.682;9.016;2023-06-04T13:09:12;13.57;;;12.47;;
3405;SDS011;10008;48.682;9.016;2023-06-04T13:11:40;12.80;;;11.80;;
3405;SDS011;10008;48.682;9.016;2023-06-04T13:14:09;13.20;;;12.20;;
3405;SDS011;10008;48.682;9.016;2023-06-04T13:16:36;13.50;;;12.40;;
3405;SDS011;10008;48.682;9.016;2023-06-04T13:19:03;12.43;;;11.43;;
3405;SDS011;10008;48.682;9.016;2023-06-04T13:21:29;12.97;;;11.93;;
3405;SDS011;10008;48.682;9.016;2023-06-04T13:23:55;12.20;;;11.20;;
3405;SDS011;10008;48.682;9.016;2023-06-04T13:26:21;12.73;;;11.73;;
3405;SDS011;10008;48.682;9.016;2023-06-04T13:28:47;12.80;;;11.80;;
3405;SDS011;10008;48.682;9.016;2023-06-04T13:31:13;14.17;;;12.97;;
3405;SDS011;10008;48.682;9.016;2023-06-04T13:33:39;13.27;;;12.27;;
3405;SDS011;10008;48.682;9.016;2023-06-04T13:36:06;12.40;;;11.40;;
3405;SDS011;10008;48.682;9.016;2023-06-04T13:38:32;13.00;;;12.00;;
3405;SDS011;10008;48.682;9.016;2023-06-04T13:40:58;13.77;;;12.57;;
3405;SDS011;10008;48.682;9.016;2023-06-04T13:43:24;15.50;;;14.17;;
3405;SDS011;10008;48.682;9.016;2023-06-04T13:45:50;13.50;;;12.40;;
3405;SDS011;10008;48.682;9.016;2023-06-04T13:48:16;12.87;;;11.87;;
3405;SDS011;10008;48.682;9.016;2023-06-04T13:50:42;13.47;;;12.47;;
3405;SDS011;10008;48.682;9.016;2023-06-04T13:53:08;13.50;;;12.40;;
3405;SDS011;10008;48.682;9.016;2023-06-04T13:55:34;12.93;;;11.93;;
3405;SDS011;10008;48.682;9.016;2023-06-04T13:57:59;13.20;;;12.20;;
3405;SDS011;10008;48.682;9.016;2023-06-04T14:00:25;13.10;;;12.10;;
3405;SDS011;10008;48.682;9.016;2023-06-04T14:02:52;13.10;;;12.10;;
3405;SDS011;10008;48.682;9.016;2023-06-04T14:05:20;13.37;;;12.30;;
3405;SDS011;10008;48.682;9.016;2023-06-04T14:07:46;12.93;;;11.93;;
3405;SDS011;10008;48.682;9.016;2023-06-04T14:10:12;12.77;;;11.77;;
3405;SDS011;10008;48.682;9.016;2023-06-04T14:12:38;12.67;;;11.67;;
3405;SDS011;10008;48.682;9.016;2023-06-04T14:15:05;13.43;;;12.43;;
3405;SDS011;10008;48.682;9.016;2023-06-04T14:17:32;14.47;;;13.27;;
3405;SDS011;10008;48.682;9.016;2023-06-04T14:19:59;13.13;;;12.13;;
3405;SDS011;10008;48.682;9.016;2023-06-04T14:22:25;14.23;;;13.13;;
3405;SDS011;10008;48.682;9.016;2023-06-04T14:24:51;13.37;;;12.30;;
3405;SDS011;10008;48.682;9.016;2023-06-04T14:27:16;13.03;;;12.03;;
3405;SDS011;10008;48.682;9.016;2023-06-04T14:29:42;13.80;;;12.70;;
3405;SDS011;10008;48.682;9.016;2023-06-04T14:32:08;12.90;;;11.90;;
3405;SDS011;10008;48.682;9.016;2023-06-04T14:34:34;13.37;;;12.17;;
3405;SDS011;10008;48.682;9.016;2023-06-04T14:37:00;12.90;;;11.80;;
3405;SDS011;10008;48.682;9.016;2023-06-04T14:39:28;12.30;;;11.30;;
3405;SDS011;10008;48.682;9.016;2023-06-04T14:41:54;12.77;;;11.73;;
3405;SDS011;10008;48.682;9.016;2023-06-04T14:44:20;13.27;;;12.17;;
3405;SDS011;10008;48.682;9.016;2023-06-04T14:46:46;13.60;;;12.50;;